Country
Station

 

Weather  for  Albany, Albany County Airport  -  United States    United States

  
2 °C (36 °F)
    
 
 

Current METAR for Albany, Albany County Airport is :

KALB 192351Z 30005KT 10SM FEW060 FEW080 02/M09 A3039 RMK AO2 SLP293 T00221094 10072 20022 53004

 

This is a report for Albany, Albany County Airport - United States.
 
The report was made a moment ago, at 23:51 UTC .
The wind was blowing at a speed of 2.6 meters per second (5.8 miles per hour) from west/northwest (300°).
 
The temperature was 2 °C (36 °F), with a dew-point at -9 °C (16 °F).
The temperature felt like -1 °C (31 °F).
 
The atmospheric pressure was 1029 hPa (30.39 inHg).
The relative humidity was 43.8%.
 
There were a few clouds at a height of 1829 meters (6000 feet) and a few clouds at a height of 2438 meters (8000 feet).
 
The overall visibility was 16.1 kilometers (10.0 miles).
 

 
 
 
 

Country :   A   B   C   D   E   F   G   H   I   J   K   L   M   N   O   P   Q   R   S   T   U   V   W   Y   Z

 

Site Info  |  Disclaimer  |  Credits  |  Privacy
Contact us  |  Add to favorites
© 2013-2019 METARs - All rights reserved